sensor_id;sensor_type;location;lat;lon;timestamp;P1;durP1;ratioP1;P2;durP2;ratioP2
76194;SDS011;64964;48.694;21.206;2023-09-08T00:01:17;6.90;;;4.90;;
76194;SDS011;64964;48.694;21.206;2023-09-08T00:03:42;7.17;;;4.97;;
76194;SDS011;64964;48.694;21.206;2023-09-08T00:06:08;7.32;;;5.30;;
76194;SDS011;64964;48.694;21.206;2023-09-08T00:08:33;7.17;;;4.93;;
76194;SDS011;64964;48.694;21.206;2023-09-08T00:10:58;8.20;;;5.33;;
76194;SDS011;64964;48.694;21.206;2023-09-08T00:13:24;6.80;;;4.43;;
76194;SDS011;64964;48.694;21.206;2023-09-08T00:15:49;6.60;;;4.37;;
76194;SDS011;64964;48.694;21.206;2023-09-08T00:18:14;10.43;;;5.15;;
76194;SDS011;64964;48.694;21.206;2023-09-08T00:20:40;8.33;;;5.00;;
76194;SDS011;64964;48.694;21.206;2023-09-08T00:23:07;8.43;;;4.85;;
76194;SDS011;64964;48.694;21.206;2023-09-08T00:25:32;8.30;;;4.43;;
76194;SDS011;64964;48.694;21.206;2023-09-08T00:27:58;8.23;;;4.77;;
76194;SDS011;64964;48.694;21.206;2023-09-08T00:30:23;6.77;;;5.00;;
76194;SDS011;64964;48.694;21.206;2023-09-08T00:32:48;11.50;;;5.00;;
76194;SDS011;64964;48.694;21.206;2023-09-08T00:35:14;8.98;;;5.40;;
76194;SDS011;64964;48.694;21.206;2023-09-08T00:37:39;8.93;;;4.93;;
76194;SDS011;64964;48.694;21.206;2023-09-08T00:40:05;8.35;;;5.10;;
76194;SDS011;64964;48.694;21.206;2023-09-08T00:42:33;7.33;;;4.53;;
76194;SDS011;64964;48.694;21.206;2023-09-08T00:44:58;6.65;;;4.60;;
76194;SDS011;64964;48.694;21.206;2023-09-08T00:47:24;7.40;;;4.50;;
76194;SDS011;64964;48.694;21.206;2023-09-08T00:49:49;8.03;;;4.70;;
76194;SDS011;64964;48.694;21.206;2023-09-08T00:52:16;7.22;;;4.72;;
76194;SDS011;64964;48.694;21.206;2023-09-08T00:54:42;8.13;;;4.47;;
76194;SDS011;64964;48.694;21.206;2023-09-08T00:57:07;8.20;;;4.37;;
76194;SDS011;64964;48.694;21.206;2023-09-08T00:59:34;6.60;;;4.40;;
76194;SDS011;64964;48.694;21.206;2023-09-08T01:02:04;6.97;;;4.67;;
76194;SDS011;64964;48.694;21.206;2023-09-08T01:04:30;6.43;;;4.57;;
76194;SDS011;64964;48.694;21.206;2023-09-08T01:06:55;6.70;;;5.05;;
76194;SDS011;64964;48.694;21.206;2023-09-08T01:09:23;7.25;;;4.93;;
76194;SDS011;64964;48.694;21.206;2023-09-08T01:11:49;6.93;;;4.67;;
76194;SDS011;64964;48.694;21.206;2023-09-08T01:14:17;5.32;;;4.18;;
76194;SDS011;64964;48.694;21.206;2023-09-08T01:16:44;7.95;;;4.93;;
76194;SDS011;64964;48.694;21.206;2023-09-08T01:19:11;6.80;;;4.80;;
76194;SDS011;64964;48.694;21.206;2023-09-08T01:27:08;7.20;;;4.85;;
76194;SDS011;64964;48.694;21.206;2023-09-08T01:29:37;5.70;;;4.77;;
76194;SDS011;64964;48.694;21.206;2023-09-08T01:32:05;7.18;;;4.55;;
76194;SDS011;64964;48.694;21.206;2023-09-08T01:34:31;8.90;;;5.13;;
76194;SDS011;64964;48.694;21.206;2023-09-08T01:36:56;6.57;;;4.50;;
76194;SDS011;64964;48.694;21.206;2023-09-08T01:39:22;7.13;;;4.93;;
76194;SDS011;64964;48.694;21.206;2023-09-08T01:41:47;7.82;;;5.07;;
76194;SDS011;64964;48.694;21.206;2023-09-08T01:44:13;8.47;;;5.10;;
76194;SDS011;64964;48.694;21.206;2023-09-08T01:46:38;7.77;;;5.00;;
76194;SDS011;64964;48.694;21.206;2023-09-08T01:49:05;7.47;;;4.20;;
76194;SDS011;64964;48.694;21.206;2023-09-08T01:51:31;8.80;;;4.90;;
76194;SDS011;64964;48.694;21.206;2023-09-08T01:53:56;7.90;;;4.57;;
76194;SDS011;64964;48.694;21.206;2023-09-08T01:56:21;5.93;;;4.73;;
76194;SDS011;64964;48.694;21.206;2023-09-08T01:58:48;6.47;;;4.95;;
76194;SDS011;64964;48.694;21.206;2023-09-08T02:01:13;6.93;;;5.23;;
76194;SDS011;64964;48.694;21.206;2023-09-08T02:03:38;9.37;;;5.10;;
76194;SDS011;64964;48.694;21.206;2023-09-08T02:06:04;7.50;;;4.77;;
76194;SDS011;64964;48.694;21.206;2023-09-08T02:08:29;6.37;;;4.93;;
76194;SDS011;64964;48.694;21.206;2023-09-08T02:10:54;7.17;;;4.93;;
76194;SDS011;64964;48.694;21.206;2023-09-08T02:13:20;5.80;;;4.30;;
76194;SDS011;64964;48.694;21.206;2023-09-08T02:15:45;7.60;;;5.03;;
76194;SDS011;64964;48.694;21.206;2023-09-08T02:18:10;7.47;;;4.60;;
76194;SDS011;64964;48.694;21.206;2023-09-08T02:20:37;7.78;;;4.80;;
76194;SDS011;64964;48.694;21.206;2023-09-08T02:23:05;7.73;;;5.43;;
76194;SDS011;64964;48.694;21.206;2023-09-08T02:25:31;6.95;;;5.15;;
76194;SDS011;64964;48.694;21.206;2023-09-08T02:27:57;7.80;;;5.40;;
76194;SDS011;64964;48.694;21.206;2023-09-08T02:30:22;7.90;;;4.70;;
76194;SDS011;64964;48.694;21.206;2023-09-08T02:32:48;6.47;;;4.90;;
76194;SDS011;64964;48.694;21.206;2023-09-08T02:35:13;9.77;;;4.82;;
76194;SDS011;64964;48.694;21.206;2023-09-08T02:37:38;7.90;;;4.53;;
76194;SDS011;64964;48.694;21.206;2023-09-08T02:40:05;10.27;;;4.83;;
76194;SDS011;64964;48.694;21.206;2023-09-08T02:42:31;7.72;;;4.68;;
76194;SDS011;64964;48.694;21.206;2023-09-08T02:44:56;6.67;;;4.67;;
76194;SDS011;64964;48.694;21.206;2023-09-08T02:47:21;6.07;;;4.40;;
76194;SDS011;64964;48.694;21.206;2023-09-08T02:49:47;6.27;;;4.17;;
76194;SDS011;64964;48.694;21.206;2023-09-08T02:52:12;6.27;;;5.07;;
76194;SDS011;64964;48.694;21.206;2023-09-08T02:54:38;6.53;;;4.60;;
76194;SDS011;64964;48.694;21.206;2023-09-08T02:57:04;7.50;;;4.85;;
76194;SDS011;64964;48.694;21.206;2023-09-08T02:59:29;7.07;;;4.70;;
76194;SDS011;64964;48.694;21.206;2023-09-08T03:01:55;5.93;;;4.40;;
76194;SDS011;64964;48.694;21.206;2023-09-08T03:04:20;6.77;;;4.40;;
76194;SDS011;64964;48.694;21.206;2023-09-08T03:06:45;7.97;;;5.43;;
76194;SDS011;64964;48.694;21.206;2023-09-08T03:09:11;6.47;;;4.60;;
76194;SDS011;64964;48.694;21.206;2023-09-08T03:11:36;8.70;;;5.23;;
76194;SDS011;64964;48.694;21.206;2023-09-08T03:14:02;7.28;;;4.55;;
76194;SDS011;64964;48.694;21.206;2023-09-08T03:16:28;7.87;;;4.80;;
76194;SDS011;64964;48.694;21.206;2023-09-08T03:18:53;6.77;;;4.87;;
76194;SDS011;64964;48.694;21.206;2023-09-08T03:21:18;7.27;;;4.37;;
76194;SDS011;64964;48.694;21.206;2023-09-08T03:23:45;7.13;;;5.10;;
76194;SDS011;64964;48.694;21.206;2023-09-08T03:26:11;5.75;;;4.70;;
76194;SDS011;64964;48.694;21.206;2023-09-08T03:28:36;8.50;;;5.07;;
76194;SDS011;64964;48.694;21.206;2023-09-08T03:31:03;6.50;;;4.20;;
76194;SDS011;64964;48.694;21.206;2023-09-08T03:33:30;7.20;;;4.63;;
76194;SDS011;64964;48.694;21.206;2023-09-08T03:35:55;8.83;;;4.70;;
76194;SDS011;64964;48.694;21.206;2023-09-08T03:38:21;7.70;;;4.53;;
76194;SDS011;64964;48.694;21.206;2023-09-08T03:40:46;5.97;;;4.38;;
76194;SDS011;64964;48.694;21.206;2023-09-08T03:43:12;7.10;;;5.03;;
76194;SDS011;64964;48.694;21.206;2023-09-08T03:45:37;6.40;;;4.90;;
76194;SDS011;64964;48.694;21.206;2023-09-08T03:48:03;7.70;;;5.13;;
76194;SDS011;64964;48.694;21.206;2023-09-08T03:50:29;8.27;;;4.90;;
76194;SDS011;64964;48.694;21.206;2023-09-08T03:52:54;7.10;;;4.57;;
76194;SDS011;64964;48.694;21.206;2023-09-08T03:55:20;7.05;;;4.70;;
76194;SDS011;64964;48.694;21.206;2023-09-08T03:57:45;9.43;;;5.27;;
76194;SDS011;64964;48.694;21.206;2023-09-08T04:00:11;7.47;;;5.00;;
76194;SDS011;64964;48.694;21.206;2023-09-08T04:02:37;10.55;;;4.88;;
76194;SDS011;64964;48.694;21.206;2023-09-08T04:05:02;6.60;;;4.13;;
76194;SDS011;64964;48.694;21.206;2023-09-08T04:07:28;6.65;;;4.20;;
76194;SDS011;64964;48.694;21.206;2023-09-08T04:09:53;6.77;;;3.90;;
76194;SDS011;64964;48.694;21.206;2023-09-08T04:12:19;8.23;;;4.57;;
76194;SDS011;64964;48.694;21.206;2023-09-08T04:14:44;7.07;;;4.37;;
76194;SDS011;64964;48.694;21.206;2023-09-08T04:17:10;7.95;;;4.90;;
76194;SDS011;64964;48.694;21.206;2023-09-08T04:19:35;6.63;;;4.87;;
76194;SDS011;64964;48.694;21.206;2023-09-08T04:22:00;7.53;;;5.20;;
76194;SDS011;64964;48.694;21.206;2023-09-08T04:24:26;9.30;;;5.13;;
76194;SDS011;64964;48.694;21.206;2023-09-08T04:26:51;10.40;;;5.00;;
76194;SDS011;64964;48.694;21.206;2023-09-08T04:29:16;8.83;;;5.30;;
76194;SDS011;64964;48.694;21.206;2023-09-08T04:31:42;6.20;;;4.17;;
76194;SDS011;64964;48.694;21.206;2023-09-08T04:34:07;6.13;;;4.23;;
76194;SDS011;64964;48.694;21.206;2023-09-08T04:36:33;7.63;;;5.03;;
76194;SDS011;64964;48.694;21.206;2023-09-08T04:38:58;7.43;;;5.00;;
76194;SDS011;64964;48.694;21.206;2023-09-08T04:41:23;7.70;;;5.00;;
76194;SDS011;64964;48.694;21.206;2023-09-08T04:43:49;6.90;;;5.00;;
76194;SDS011;64964;48.694;21.206;2023-09-08T04:46:14;6.73;;;4.83;;
76194;SDS011;64964;48.694;21.206;2023-09-08T04:48:39;6.40;;;4.90;;
76194;SDS011;64964;48.694;21.206;2023-09-08T04:51:05;7.93;;;4.53;;
76194;SDS011;64964;48.694;21.206;2023-09-08T04:53:30;6.43;;;4.60;;
76194;SDS011;64964;48.694;21.206;2023-09-08T04:55:55;7.17;;;5.00;;
76194;SDS011;64964;48.694;21.206;2023-09-08T04:58:21;7.23;;;4.70;;
76194;SDS011;64964;48.694;21.206;2023-09-08T05:00:46;7.88;;;4.82;;
76194;SDS011;64964;48.694;21.206;2023-09-08T05:03:12;6.47;;;4.97;;
76194;SDS011;64964;48.694;21.206;2023-09-08T05:05:37;9.63;;;4.70;;
76194;SDS011;64964;48.694;21.206;2023-09-08T05:08:04;9.18;;;4.88;;
76194;SDS011;64964;48.694;21.206;2023-09-08T05:10:29;7.13;;;4.70;;
76194;SDS011;64964;48.694;21.206;2023-09-08T05:12:55;6.03;;;4.50;;
76194;SDS011;64964;48.694;21.206;2023-09-08T05:15:20;8.47;;;4.67;;
76194;SDS011;64964;48.694;21.206;2023-09-08T05:17:46;7.03;;;4.25;;
76194;SDS011;64964;48.694;21.206;2023-09-08T05:20:12;7.40;;;4.30;;
76194;SDS011;64964;48.694;21.206;2023-09-08T05:22:37;8.83;;;4.73;;
76194;SDS011;64964;48.694;21.206;2023-09-08T05:25:03;8.67;;;5.50;;
76194;SDS011;64964;48.694;21.206;2023-09-08T05:27:28;5.80;;;4.40;;
76194;SDS011;64964;48.694;21.206;2023-09-08T05:29:54;6.80;;;4.27;;
76194;SDS011;64964;48.694;21.206;2023-09-08T05:32:19;6.53;;;4.43;;
76194;SDS011;64964;48.694;21.206;2023-09-08T05:34:45;7.87;;;4.80;;
76194;SDS011;64964;48.694;21.206;2023-09-08T05:37:10;5.40;;;4.70;;
76194;SDS011;64964;48.694;21.206;2023-09-08T05:39:35;8.90;;;5.10;;
76194;SDS011;64964;48.694;21.206;2023-09-08T05:42:01;7.10;;;4.60;;
76194;SDS011;64964;48.694;21.206;2023-09-08T05:44:26;7.93;;;4.57;;
76194;SDS011;64964;48.694;21.206;2023-09-08T05:46:52;5.68;;;4.43;;
76194;SDS011;64964;48.694;21.206;2023-09-08T05:49:17;5.90;;;3.83;;
76194;SDS011;64964;48.694;21.206;2023-09-08T05:51:43;5.83;;;4.53;;
76194;SDS011;64964;48.694;21.206;2023-09-08T05:54:09;6.57;;;4.88;;
76194;SDS011;64964;48.694;21.206;2023-09-08T05:56:36;7.22;;;4.40;;
76194;SDS011;64964;48.694;21.206;2023-09-08T05:59:02;7.23;;;4.47;;
76194;SDS011;64964;48.694;21.206;2023-09-08T06:01:27;7.37;;;5.17;;
76194;SDS011;64964;48.694;21.206;2023-09-08T06:03:53;6.03;;;4.60;;
76194;SDS011;64964;48.694;21.206;2023-09-08T06:06:19;4.97;;;3.85;;
76194;SDS011;64964;48.694;21.206;2023-09-08T06:08:45;6.78;;;4.47;;
76194;SDS011;64964;48.694;21.206;2023-09-08T06:11:10;5.20;;;3.77;;
76194;SDS011;64964;48.694;21.206;2023-09-08T06:13:37;5.65;;;4.20;;
76194;SDS011;64964;48.694;21.206;2023-09-08T06:16:02;5.83;;;4.13;;
76194;SDS011;64964;48.694;21.206;2023-09-08T06:18:28;4.70;;;3.63;;
76194;SDS011;64964;48.694;21.206;2023-09-08T06:20:57;5.63;;;4.25;;
76194;SDS011;64964;48.694;21.206;2023-09-08T06:23:22;5.95;;;4.30;;
76194;SDS011;64964;48.694;21.206;2023-09-08T06:25:51;6.33;;;3.87;;
76194;SDS011;64964;48.694;21.206;2023-09-08T06:28:24;4.72;;;3.70;;
76194;SDS011;64964;48.694;21.206;2023-09-08T06:30:49;5.93;;;3.60;;
76194;SDS011;64964;48.694;21.206;2023-09-08T06:33:14;4.63;;;3.63;;
76194;SDS011;64964;48.694;21.206;2023-09-08T06:35:40;5.05;;;3.90;;
76194;SDS011;64964;48.694;21.206;2023-09-08T06:38:05;5.63;;;4.00;;
76194;SDS011;64964;48.694;21.206;2023-09-08T06:40:30;5.20;;;3.13;;
76194;SDS011;64964;48.694;21.206;2023-09-08T06:42:56;4.40;;;3.60;;
76194;SDS011;64964;48.694;21.206;2023-09-08T06:45:22;4.57;;;3.53;;
76194;SDS011;64964;48.694;21.206;2023-09-08T06:47:47;5.43;;;3.40;;
76194;SDS011;64964;48.694;21.206;2023-09-08T06:50:14;5.22;;;3.60;;
76194;SDS011;64964;48.694;21.206;2023-09-08T06:52:40;4.83;;;3.73;;
76194;SDS011;64964;48.694;21.206;2023-09-08T06:55:05;6.00;;;3.70;;
76194;SDS011;64964;48.694;21.206;2023-09-08T06:57:31;4.73;;;3.80;;
76194;SDS011;64964;48.694;21.206;2023-09-08T06:59:56;5.03;;;3.50;;
76194;SDS011;64964;48.694;21.206;2023-09-08T07:02:22;3.97;;;3.47;;
76194;SDS011;64964;48.694;21.206;2023-09-08T07:04:47;5.70;;;3.80;;
76194;SDS011;64964;48.694;21.206;2023-09-08T07:07:12;5.13;;;3.40;;
76194;SDS011;64964;48.694;21.206;2023-09-08T07:09:38;5.83;;;3.77;;
76194;SDS011;64964;48.694;21.206;2023-09-08T07:12:04;5.32;;;4.00;;
76194;SDS011;64964;48.694;21.206;2023-09-08T07:14:31;3.83;;;3.28;;
76194;SDS011;64964;48.694;21.206;2023-09-08T07:16:57;4.00;;;3.33;;
76194;SDS011;64964;48.694;21.206;2023-09-08T07:19:22;5.57;;;3.97;;
76194;SDS011;64964;48.694;21.206;2023-09-08T07:21:47;5.03;;;4.07;;
76194;SDS011;64964;48.694;21.206;2023-09-08T07:24:13;4.80;;;3.53;;
76194;SDS011;64964;48.694;21.206;2023-09-08T07:26:38;4.45;;;3.53;;
76194;SDS011;64964;48.694;21.206;2023-09-08T07:29:04;5.73;;;3.53;;
76194;SDS011;64964;48.694;21.206;2023-09-08T07:31:29;4.17;;;3.67;;
76194;SDS011;64964;48.694;21.206;2023-09-08T07:33:54;5.23;;;3.77;;
76194;SDS011;64964;48.694;21.206;2023-09-08T07:36:20;5.50;;;3.50;;
76194;SDS011;64964;48.694;21.206;2023-09-08T07:38:45;5.07;;;3.92;;
76194;SDS011;64964;48.694;21.206;2023-09-08T07:41:10;6.87;;;3.50;;
76194;SDS011;64964;48.694;21.206;2023-09-08T07:43:36;3.90;;;3.20;;
76194;SDS011;64964;48.694;21.206;2023-09-08T07:46:05;6.20;;;3.58;;
76194;SDS011;64964;48.694;21.206;2023-09-08T07:48:31;4.63;;;3.70;;
76194;SDS011;64964;48.694;21.206;2023-09-08T07:50:57;4.90;;;3.83;;
76194;SDS011;64964;48.694;21.206;2023-09-08T07:53:23;6.40;;;4.07;;
76194;SDS011;64964;48.694;21.206;2023-09-08T07:55:48;4.80;;;3.63;;
76194;SDS011;64964;48.694;21.206;2023-09-08T07:58:14;5.30;;;3.50;;
76194;SDS011;64964;48.694;21.206;2023-09-08T08:00:39;7.67;;;3.30;;
76194;SDS011;64964;48.694;21.206;2023-09-08T08:03:04;4.20;;;2.92;;
76194;SDS011;64964;48.694;21.206;2023-09-08T08:05:31;6.60;;;3.60;;
76194;SDS011;64964;48.694;21.206;2023-09-08T08:07:56;3.97;;;3.57;;
76194;SDS011;64964;48.694;21.206;2023-09-08T08:10:22;4.37;;;3.40;;
76194;SDS011;64964;48.694;21.206;2023-09-08T08:12:47;4.50;;;3.37;;
76194;SDS011;64964;48.694;21.206;2023-09-08T08:15:12;4.87;;;3.37;;
76194;SDS011;64964;48.694;21.206;2023-09-08T08:17:38;4.50;;;3.60;;
76194;SDS011;64964;48.694;21.206;2023-09-08T08:20:05;4.75;;;3.35;;
76194;SDS011;64964;48.694;21.206;2023-09-08T08:22:34;6.07;;;3.90;;
76194;SDS011;64964;48.694;21.206;2023-09-08T08:25:00;5.70;;;3.50;;
76194;SDS011;64964;48.694;21.206;2023-09-08T08:27:26;5.47;;;3.55;;
76194;SDS011;64964;48.694;21.206;2023-09-08T08:29:51;4.57;;;3.40;;
76194;SDS011;64964;48.694;21.206;2023-09-08T08:32:17;5.68;;;3.42;;
76194;SDS011;64964;48.694;21.206;2023-09-08T08:34:42;6.23;;;3.63;;
76194;SDS011;64964;48.694;21.206;2023-09-08T08:37:10;5.03;;;3.90;;
76194;SDS011;64964;48.694;21.206;2023-09-08T08:39:35;5.50;;;3.40;;
76194;SDS011;64964;48.694;21.206;2023-09-08T08:42:07;7.55;;;3.45;;
76194;SDS011;64964;48.694;21.206;2023-09-08T08:44:33;4.90;;;3.47;;
76194;SDS011;64964;48.694;21.206;2023-09-08T08:47:00;5.47;;;3.50;;
76194;SDS011;64964;48.694;21.206;2023-09-08T08:49:28;6.20;;;3.60;;
76194;SDS011;64964;48.694;21.206;2023-09-08T08:51:56;5.18;;;4.10;;
76194;SDS011;64964;48.694;21.206;2023-09-08T08:54:23;5.28;;;4.05;;
76194;SDS011;64964;48.694;21.206;2023-09-08T08:56:49;8.73;;;4.35;;
76194;SDS011;64964;48.694;21.206;2023-09-08T08:59:15;8.00;;;3.80;;
76194;SDS011;64964;48.694;21.206;2023-09-08T09:01:41;7.15;;;3.63;;
76194;SDS011;64964;48.694;21.206;2023-09-08T09:04:07;4.10;;;3.25;;
76194;SDS011;64964;48.694;21.206;2023-09-08T09:06:33;5.28;;;3.80;;
76194;SDS011;64964;48.694;21.206;2023-09-08T09:08:59;5.83;;;4.43;;
76194;SDS011;64964;48.694;21.206;2023-09-08T09:11:25;6.97;;;3.75;;
76194;SDS011;64964;48.694;21.206;2023-09-08T09:13:50;4.10;;;3.50;;
76194;SDS011;64964;48.694;21.206;2023-09-08T09:16:15;5.40;;;3.77;;
76194;SDS011;64964;48.694;21.206;2023-09-08T09:19:02;7.75;;;3.97;;
76194;SDS011;64964;48.694;21.206;2023-09-08T09:24:16;4.93;;;3.60;;
76194;SDS011;64964;48.694;21.206;2023-09-08T09:26:42;4.53;;;3.60;;
76194;SDS011;64964;48.694;21.206;2023-09-08T09:29:11;6.80;;;3.47;;
76194;SDS011;64964;48.694;21.206;2023-09-08T09:31:40;5.50;;;3.60;;
76194;SDS011;64964;48.694;21.206;2023-09-08T09:34:16;4.63;;;3.40;;
76194;SDS011;64964;48.694;21.206;2023-09-08T09:36:42;4.57;;;2.90;;
76194;SDS011;64964;48.694;21.206;2023-09-08T09:39:08;5.65;;;4.00;;
76194;SDS011;64964;48.694;21.206;2023-09-08T09:41:33;3.58;;;3.10;;
76194;SDS011;64964;48.694;21.206;2023-09-08T09:43:59;5.37;;;3.83;;
76194;SDS011;64964;48.694;21.206;2023-09-08T09:46:27;5.97;;;3.60;;
76194;SDS011;64964;48.694;21.206;2023-09-08T09:48:54;4.95;;;3.85;;
76194;SDS011;64964;48.694;21.206;2023-09-08T09:51:21;5.05;;;3.80;;
76194;SDS011;64964;48.694;21.206;2023-09-08T09:53:47;6.10;;;4.07;;
76194;SDS011;64964;48.694;21.206;2023-09-08T09:56:15;7.33;;;3.60;;
76194;SDS011;64964;48.694;21.206;2023-09-08T09:58:42;6.23;;;3.97;;
76194;SDS011;64964;48.694;21.206;2023-09-08T10:01:08;7.00;;;3.97;;
76194;SDS011;64964;48.694;21.206;2023-09-08T10:03:36;5.50;;;3.13;;
76194;SDS011;64964;48.694;21.206;2023-09-08T10:06:03;6.30;;;3.70;;
76194;SDS011;64964;48.694;21.206;2023-09-08T10:08:30;4.18;;;3.72;;
76194;SDS011;64964;48.694;21.206;2023-09-08T10:10:58;5.72;;;4.20;;
76194;SDS011;64964;48.694;21.206;2023-09-08T10:13:27;4.45;;;3.40;;
76194;SDS011;64964;48.694;21.206;2023-09-08T10:15:57;5.72;;;3.60;;
76194;SDS011;64964;48.694;21.206;2023-09-08T10:18:23;5.40;;;4.00;;
76194;SDS011;64964;48.694;21.206;2023-09-08T10:20:50;4.70;;;3.67;;
76194;SDS011;64964;48.694;21.206;2023-09-08T10:23:23;6.10;;;4.07;;
76194;SDS011;64964;48.694;21.206;2023-09-08T10:25:53;4.82;;;3.63;;
76194;SDS011;64964;48.694;21.206;2023-09-08T10:28:24;4.72;;;3.88;;
76194;SDS011;64964;48.694;21.206;2023-09-08T10:30:50;7.20;;;3.97;;
76194;SDS011;64964;48.694;21.206;2023-09-08T10:33:16;6.13;;;4.03;;
76194;SDS011;64964;48.694;21.206;2023-09-08T10:35:43;6.37;;;3.77;;
76194;SDS011;64964;48.694;21.206;2023-09-08T10:38:22;6.15;;;3.50;;
76194;SDS011;64964;48.694;21.206;2023-09-08T10:40:51;5.40;;;4.00;;
76194;SDS011;64964;48.694;21.206;2023-09-08T10:43:36;5.63;;;4.00;;
76194;SDS011;64964;48.694;21.206;2023-09-08T10:46:07;4.22;;;3.80;;
76194;SDS011;64964;48.694;21.206;2023-09-08T10:48:41;6.25;;;3.90;;
76194;SDS011;64964;48.694;21.206;2023-09-08T10:51:12;6.22;;;3.50;;
76194;SDS011;64964;48.694;21.206;2023-09-08T10:53:39;5.50;;;3.83;;
76194;SDS011;64964;48.694;21.206;2023-09-08T10:56:04;7.10;;;3.93;;
76194;SDS011;64964;48.694;21.206;2023-09-08T10:58:30;5.25;;;3.75;;
76194;SDS011;64964;48.694;21.206;2023-09-08T11:01:12;6.37;;;3.77;;
76194;SDS011;64964;48.694;21.206;2023-09-08T11:06:04;7.68;;;3.67;;
76194;SDS011;64964;48.694;21.206;2023-09-08T11:08:37;5.10;;;3.40;;
76194;SDS011;64964;48.694;21.206;2023-09-08T11:11:03;4.70;;;3.63;;
76194;SDS011;64964;48.694;21.206;2023-09-08T11:13:28;6.67;;;3.60;;
76194;SDS011;64964;48.694;21.206;2023-09-08T11:15:54;7.17;;;3.67;;
76194;SDS011;64964;48.694;21.206;2023-09-08T11:18:29;6.05;;;3.88;;
76194;SDS011;64964;48.694;21.206;2023-09-08T11:20:56;4.45;;;3.50;;
76194;SDS011;64964;48.694;21.206;2023-09-08T11:23:22;8.00;;;3.72;;
76194;SDS011;64964;48.694;21.206;2023-09-08T11:25:49;6.90;;;4.00;;
76194;SDS011;64964;48.694;21.206;2023-09-08T11:28:16;7.32;;;3.70;;
76194;SDS011;64964;48.694;21.206;2023-09-08T11:30:42;6.32;;;3.63;;
76194;SDS011;64964;48.694;21.206;2023-09-08T11:33:18;5.27;;;3.57;;
76194;SDS011;64964;48.694;21.206;2023-09-08T11:35:48;4.88;;;3.45;;
76194;SDS011;64964;48.694;21.206;2023-09-08T11:38:13;6.65;;;3.78;;
76194;SDS011;64964;48.694;21.206;2023-09-08T11:40:39;4.87;;;3.77;;
76194;SDS011;64964;48.694;21.206;2023-09-08T11:43:06;4.60;;;3.42;;
76194;SDS011;64964;48.694;21.206;2023-09-08T11:45:35;5.65;;;3.85;;
76194;SDS011;64964;48.694;21.206;2023-09-08T11:48:01;5.50;;;3.75;;
76194;SDS011;64964;48.694;21.206;2023-09-08T11:50:29;5.90;;;3.88;;
76194;SDS011;64964;48.694;21.206;2023-09-08T11:52:55;7.72;;;4.20;;
76194;SDS011;64964;48.694;21.206;2023-09-08T11:55:21;5.55;;;3.88;;
76194;SDS011;64964;48.694;21.206;2023-09-08T11:57:48;5.90;;;4.00;;
76194;SDS011;64964;48.694;21.206;2023-09-08T12:00:16;4.38;;;3.53;;
76194;SDS011;64964;48.694;21.206;2023-09-08T12:02:46;5.03;;;3.70;;
76194;SDS011;64964;48.694;21.206;2023-09-08T12:05:32;5.35;;;3.85;;
76194;SDS011;64964;48.694;21.206;2023-09-08T12:07:57;6.15;;;3.85;;
76194;SDS011;64964;48.694;21.206;2023-09-08T12:10:23;7.10;;;4.00;;
76194;SDS011;64964;48.694;21.206;2023-09-08T12:12:50;5.63;;;3.83;;
76194;SDS011;64964;48.694;21.206;2023-09-08T12:15:37;7.77;;;4.20;;
76194;SDS011;64964;48.694;21.206;2023-09-08T12:18:05;6.45;;;3.75;;
76194;SDS011;64964;48.694;21.206;2023-09-08T12:20:35;5.35;;;3.88;;
76194;SDS011;64964;48.694;21.206;2023-09-08T12:23:02;6.88;;;4.13;;
76194;SDS011;64964;48.694;21.206;2023-09-08T12:25:29;6.78;;;3.72;;
76194;SDS011;64964;48.694;21.206;2023-09-08T12:27:56;6.25;;;3.45;;
76194;SDS011;64964;48.694;21.206;2023-09-08T12:30:23;5.60;;;3.80;;
76194;SDS011;64964;48.694;21.206;2023-09-08T12:32:57;5.50;;;3.70;;
76194;SDS011;64964;48.694;21.206;2023-09-08T12:35:23;8.15;;;3.83;;
76194;SDS011;64964;48.694;21.206;2023-09-08T12:38:02;4.57;;;3.53;;
76194;SDS011;64964;48.694;21.206;2023-09-08T12:40:30;5.00;;;3.53;;
76194;SDS011;64964;48.694;21.206;2023-09-08T12:42:58;4.75;;;3.67;;
76194;SDS011;64964;48.694;21.206;2023-09-08T12:45:25;6.90;;;3.70;;
76194;SDS011;64964;48.694;21.206;2023-09-08T12:47:51;5.72;;;3.75;;
76194;SDS011;64964;48.694;21.206;2023-09-08T12:50:17;6.35;;;3.60;;
76194;SDS011;64964;48.694;21.206;2023-09-08T12:52:43;6.53;;;4.00;;
76194;SDS011;64964;48.694;21.206;2023-09-08T12:55:09;5.28;;;4.10;;
76194;SDS011;64964;48.694;21.206;2023-09-08T12:57:35;5.22;;;3.72;;
76194;SDS011;64964;48.694;21.206;2023-09-08T13:00:01;5.75;;;3.70;;
76194;SDS011;64964;48.694;21.206;2023-09-08T13:02:27;4.37;;;3.47;;
76194;SDS011;64964;48.694;21.206;2023-09-08T13:04:53;3.93;;;3.23;;
76194;SDS011;64964;48.694;21.206;2023-09-08T13:07:20;5.05;;;3.85;;
76194;SDS011;64964;48.694;21.206;2023-09-08T13:09:45;3.93;;;3.23;;
76194;SDS011;64964;48.694;21.206;2023-09-08T13:12:11;7.03;;;3.20;;
76194;SDS011;64964;48.694;21.206;2023-09-08T13:14:38;6.22;;;3.50;;
76194;SDS011;64964;48.694;21.206;2023-09-08T13:17:04;5.10;;;3.53;;
76194;SDS011;64964;48.694;21.206;2023-09-08T13:19:29;4.67;;;3.30;;
76194;SDS011;64964;48.694;21.206;2023-09-08T13:21:55;5.23;;;3.63;;
76194;SDS011;64964;48.694;21.206;2023-09-08T13:24:20;5.28;;;3.90;;
76194;SDS011;64964;48.694;21.206;2023-09-08T13:26:47;5.43;;;3.30;;
76194;SDS011;64964;48.694;21.206;2023-09-08T13:29:12;5.90;;;3.70;;
76194;SDS011;64964;48.694;21.206;2023-09-08T13:31:38;5.18;;;3.35;;
76194;SDS011;64964;48.694;21.206;2023-09-08T13:34:03;7.67;;;3.60;;
76194;SDS011;64964;48.694;21.206;2023-09-08T13:36:28;6.27;;;3.70;;
76194;SDS011;64964;48.694;21.206;2023-09-08T13:38:54;6.97;;;3.77;;
76194;SDS011;64964;48.694;21.206;2023-09-08T13:41:19;3.60;;;3.00;;
76194;SDS011;64964;48.694;21.206;2023-09-08T13:43:44;4.80;;;3.30;;
76194;SDS011;64964;48.694;21.206;2023-09-08T13:46:10;4.87;;;3.40;;
76194;SDS011;64964;48.694;21.206;2023-09-08T13:48:35;5.73;;;3.00;;
76194;SDS011;64964;48.694;21.206;2023-09-08T13:51:01;3.83;;;3.10;;
76194;SDS011;64964;48.694;21.206;2023-09-08T13:53:29;6.93;;;3.70;;
76194;SDS011;64964;48.694;21.206;2023-09-08T13:55:59;5.32;;;3.72;;
76194;SDS011;64964;48.694;21.206;2023-09-08T13:58:25;4.10;;;3.30;;
76194;SDS011;64964;48.694;21.206;2023-09-08T14:00:50;5.57;;;3.60;;
76194;SDS011;64964;48.694;21.206;2023-09-08T14:03:18;8.40;;;3.40;;
76194;SDS011;64964;48.694;21.206;2023-09-08T14:05:44;4.85;;;3.50;;
76194;SDS011;64964;48.694;21.206;2023-09-08T14:08:09;4.93;;;3.47;;
76194;SDS011;64964;48.694;21.206;2023-09-08T14:10:35;3.77;;;3.27;;
76194;SDS011;64964;48.694;21.206;2023-09-08T14:13:00;5.00;;;3.33;;
76194;SDS011;64964;48.694;21.206;2023-09-08T14:15:26;7.27;;;3.90;;
76194;SDS011;64964;48.694;21.206;2023-09-08T14:17:51;6.78;;;3.65;;
76194;SDS011;64964;48.694;21.206;2023-09-08T14:20:18;5.13;;;3.73;;
76194;SDS011;64964;48.694;21.206;2023-09-08T14:22:43;6.07;;;3.63;;
76194;SDS011;64964;48.694;21.206;2023-09-08T14:25:09;5.37;;;3.83;;
76194;SDS011;64964;48.694;21.206;2023-09-08T14:27:35;6.15;;;3.42;;
76194;SDS011;64964;48.694;21.206;2023-09-08T14:30:01;6.68;;;3.70;;
76194;SDS011;64964;48.694;21.206;2023-09-08T14:32:28;7.45;;;3.88;;
76194;SDS011;64964;48.694;21.206;2023-09-08T14:34:54;4.90;;;3.63;;
76194;SDS011;64964;48.694;21.206;2023-09-08T14:37:21;5.13;;;3.43;;
76194;SDS011;64964;48.694;21.206;2023-09-08T14:39:46;3.85;;;3.40;;